sensor_id;sensor_type;location;lat;lon;timestamp;P1;durP1;ratioP1;P2;durP2;ratioP2
7661;SDS011;30314;48.184;11.510;2023-04-01T00:01:12;0.77;;;0.30;;
7661;SDS011;30314;48.184;11.510;2023-04-01T00:03:40;2.20;;;0.30;;
7661;SDS011;30314;48.184;11.510;2023-04-01T00:06:07;3.00;;;0.33;;
7661;SDS011;30314;48.184;11.510;2023-04-01T00:08:33;1.53;;;0.50;;
7661;SDS011;30314;48.184;11.510;2023-04-01T00:11:00;1.57;;;0.40;;
7661;SDS011;30314;48.184;11.510;2023-04-01T00:13:27;1.73;;;0.40;;
7661;SDS011;30314;48.184;11.510;2023-04-01T00:15:54;1.73;;;0.30;;
7661;SDS011;30314;48.184;11.510;2023-04-01T00:18:22;1.00;;;0.30;;
7661;SDS011;30314;48.184;11.510;2023-04-01T00:20:49;2.67;;;0.50;;
7661;SDS011;30314;48.184;11.510;2023-04-01T00:23:17;1.77;;;0.47;;
7661;SDS011;30314;48.184;11.510;2023-04-01T00:25:44;1.53;;;0.30;;
7661;SDS011;30314;48.184;11.510;2023-04-01T00:28:14;1.20;;;0.30;;
7661;SDS011;30314;48.184;11.510;2023-04-01T00:30:42;0.90;;;0.40;;
7661;SDS011;30314;48.184;11.510;2023-04-01T00:33:09;1.73;;;0.30;;
7661;SDS011;30314;48.184;11.510;2023-04-01T00:35:36;6.73;;;0.40;;
7661;SDS011;30314;48.184;11.510;2023-04-01T00:38:03;1.60;;;0.50;;
7661;SDS011;30314;48.184;11.510;2023-04-01T00:40:31;1.47;;;0.40;;
7661;SDS011;30314;48.184;11.510;2023-04-01T00:43:03;1.40;;;0.40;;
7661;SDS011;30314;48.184;11.510;2023-04-01T00:45:40;0.90;;;0.30;;
7661;SDS011;30314;48.184;11.510;2023-04-01T00:48:10;9.50;;;0.40;;
7661;SDS011;30314;48.184;11.510;2023-04-01T00:50:41;4.77;;;0.40;;
7661;SDS011;30314;48.184;11.510;2023-04-01T00:53:11;1.67;;;0.30;;
7661;SDS011;30314;48.184;11.510;2023-04-01T00:55:39;4.60;;;0.40;;
7661;SDS011;30314;48.184;11.510;2023-04-01T00:58:13;2.57;;;0.43;;
7661;SDS011;30314;48.184;11.510;2023-04-01T01:00:43;1.90;;;0.40;;
7661;SDS011;30314;48.184;11.510;2023-04-01T01:03:12;2.90;;;0.63;;
7661;SDS011;30314;48.184;11.510;2023-04-01T01:05:52;2.27;;;0.40;;
7661;SDS011;30314;48.184;11.510;2023-04-01T01:08:46;6.60;;;0.50;;
7661;SDS011;30314;48.184;11.510;2023-04-01T01:11:42;10.33;;;0.80;;
7661;SDS011;30314;48.184;11.510;2023-04-01T01:17:19;3.60;;;0.37;;
7661;SDS011;30314;48.184;11.510;2023-04-01T01:25:46;2.20;;;0.40;;
7661;SDS011;30314;48.184;11.510;2023-04-01T01:31:37;2.60;;;0.40;;
7661;SDS011;30314;48.184;11.510;2023-04-01T01:34:15;3.47;;;0.30;;
7661;SDS011;30314;48.184;11.510;2023-04-01T01:36:48;1.67;;;0.30;;
7661;SDS011;30314;48.184;11.510;2023-04-01T01:39:19;3.50;;;0.63;;
7661;SDS011;30314;48.184;11.510;2023-04-01T01:41:52;5.03;;;0.50;;
7661;SDS011;30314;48.184;11.510;2023-04-01T01:44:21;1.90;;;0.40;;
7661;SDS011;30314;48.184;11.510;2023-04-01T01:46:49;3.03;;;0.30;;
7661;SDS011;30314;48.184;11.510;2023-04-01T01:49:16;2.30;;;0.40;;
7661;SDS011;30314;48.184;11.510;2023-04-01T01:51:44;1.10;;;0.37;;
7661;SDS011;30314;48.184;11.510;2023-04-01T01:54:13;1.17;;;0.30;;
7661;SDS011;30314;48.184;11.510;2023-04-01T01:56:41;1.70;;;0.37;;
7661;SDS011;30314;48.184;11.510;2023-04-01T01:59:11;0.90;;;0.33;;
7661;SDS011;30314;48.184;11.510;2023-04-01T02:01:40;1.50;;;0.30;;
7661;SDS011;30314;48.184;11.510;2023-04-01T02:04:12;6.13;;;0.60;;
7661;SDS011;30314;48.184;11.510;2023-04-01T02:06:47;1.57;;;0.40;;
7661;SDS011;30314;48.184;11.510;2023-04-01T02:09:19;1.20;;;0.50;;
7661;SDS011;30314;48.184;11.510;2023-04-01T02:11:57;1.83;;;0.30;;
7661;SDS011;30314;48.184;11.510;2023-04-01T02:14:54;0.70;;;0.27;;
7661;SDS011;30314;48.184;11.510;2023-04-01T02:17:29;0.70;;;0.20;;
7661;SDS011;30314;48.184;11.510;2023-04-01T02:22:34;0.70;;;0.27;;
7661;SDS011;30314;48.184;11.510;2023-04-01T02:25:09;1.17;;;0.30;;
7661;SDS011;30314;48.184;11.510;2023-04-01T02:27:40;2.10;;;0.30;;
7661;SDS011;30314;48.184;11.510;2023-04-01T02:30:09;2.50;;;0.40;;
7661;SDS011;30314;48.184;11.510;2023-04-01T02:32:37;1.90;;;0.30;;
7661;SDS011;30314;48.184;11.510;2023-04-01T02:35:06;0.80;;;0.20;;
7661;SDS011;30314;48.184;11.510;2023-04-01T02:37:35;1.00;;;0.20;;
7661;SDS011;30314;48.184;11.510;2023-04-01T02:40:06;0.90;;;0.40;;
7661;SDS011;30314;48.184;11.510;2023-04-01T02:42:33;0.90;;;0.30;;
7661;SDS011;30314;48.184;11.510;2023-04-01T02:45:00;1.13;;;0.30;;
7661;SDS011;30314;48.184;11.510;2023-04-01T02:47:27;5.40;;;0.40;;
7661;SDS011;30314;48.184;11.510;2023-04-01T02:49:55;1.00;;;0.30;;
7661;SDS011;30314;48.184;11.510;2023-04-01T02:52:24;2.90;;;0.40;;
7661;SDS011;30314;48.184;11.510;2023-04-01T02:54:51;0.70;;;0.20;;
7661;SDS011;30314;48.184;11.510;2023-04-01T02:57:19;0.83;;;0.20;;
7661;SDS011;30314;48.184;11.510;2023-04-01T02:59:46;1.53;;;0.30;;
7661;SDS011;30314;48.184;11.510;2023-04-01T03:02:13;1.80;;;0.40;;
7661;SDS011;30314;48.184;11.510;2023-04-01T03:04:40;2.20;;;0.20;;
7661;SDS011;30314;48.184;11.510;2023-04-01T03:07:07;1.97;;;0.50;;
7661;SDS011;30314;48.184;11.510;2023-04-01T03:09:36;0.90;;;0.20;;
7661;SDS011;30314;48.184;11.510;2023-04-01T03:12:04;0.80;;;0.20;;
7661;SDS011;30314;48.184;11.510;2023-04-01T03:14:40;3.83;;;0.30;;
7661;SDS011;30314;48.184;11.510;2023-04-01T03:17:06;2.10;;;0.30;;
7661;SDS011;30314;48.184;11.510;2023-04-01T03:19:33;1.13;;;0.30;;
7661;SDS011;30314;48.184;11.510;2023-04-01T03:22:04;1.73;;;0.30;;
7661;SDS011;30314;48.184;11.510;2023-04-01T03:24:31;0.80;;;0.30;;
7661;SDS011;30314;48.184;11.510;2023-04-01T03:26:58;0.70;;;0.20;;
7661;SDS011;30314;48.184;11.510;2023-04-01T03:29:24;1.73;;;0.40;;
7661;SDS011;30314;48.184;11.510;2023-04-01T03:31:51;2.30;;;0.60;;
7661;SDS011;30314;48.184;11.510;2023-04-01T03:34:17;2.40;;;0.40;;
7661;SDS011;30314;48.184;11.510;2023-04-01T03:36:44;0.80;;;0.30;;
7661;SDS011;30314;48.184;11.510;2023-04-01T03:39:11;1.60;;;0.40;;
7661;SDS011;30314;48.184;11.510;2023-04-01T03:41:40;1.07;;;0.27;;
7661;SDS011;30314;48.184;11.510;2023-04-01T03:44:06;0.80;;;0.30;;
7661;SDS011;30314;48.184;11.510;2023-04-01T03:46:33;0.90;;;0.20;;
7661;SDS011;30314;48.184;11.510;2023-04-01T03:49:00;0.97;;;0.30;;
7661;SDS011;30314;48.184;11.510;2023-04-01T03:51:26;0.80;;;0.20;;
7661;SDS011;30314;48.184;11.510;2023-04-01T03:53:54;0.97;;;0.30;;
7661;SDS011;30314;48.184;11.510;2023-04-01T03:56:20;1.20;;;0.30;;
7661;SDS011;30314;48.184;11.510;2023-04-01T03:58:48;1.20;;;0.20;;
7661;SDS011;30314;48.184;11.510;2023-04-01T04:03:52;2.37;;;0.20;;
7661;SDS011;30314;48.184;11.510;2023-04-01T04:06:21;1.00;;;0.20;;
7661;SDS011;30314;48.184;11.510;2023-04-01T04:08:49;1.00;;;0.30;;
7661;SDS011;30314;48.184;11.510;2023-04-01T04:11:15;0.70;;;0.20;;
7661;SDS011;30314;48.184;11.510;2023-04-01T04:13:43;0.87;;;0.20;;
7661;SDS011;30314;48.184;11.510;2023-04-01T04:16:10;0.80;;;0.30;;
7661;SDS011;30314;48.184;11.510;2023-04-01T04:18:42;2.23;;;0.30;;
7661;SDS011;30314;48.184;11.510;2023-04-01T04:21:13;0.77;;;0.30;;
7661;SDS011;30314;48.184;11.510;2023-04-01T04:23:41;1.00;;;0.30;;
7661;SDS011;30314;48.184;11.510;2023-04-01T04:26:10;1.57;;;0.40;;
7661;SDS011;30314;48.184;11.510;2023-04-01T04:28:39;1.10;;;0.30;;
7661;SDS011;30314;48.184;11.510;2023-04-01T04:31:06;1.63;;;0.30;;
7661;SDS011;30314;48.184;11.510;2023-04-01T04:33:34;1.97;;;0.50;;
7661;SDS011;30314;48.184;11.510;2023-04-01T04:36:03;1.30;;;0.33;;
7661;SDS011;30314;48.184;11.510;2023-04-01T04:38:30;1.63;;;0.43;;
7661;SDS011;30314;48.184;11.510;2023-04-01T04:40:58;1.47;;;0.47;;
7661;SDS011;30314;48.184;11.510;2023-04-01T04:43:24;5.53;;;0.30;;
7661;SDS011;30314;48.184;11.510;2023-04-01T04:45:51;1.90;;;0.40;;
7661;SDS011;30314;48.184;11.510;2023-04-01T04:48:18;0.90;;;0.20;;
7661;SDS011;30314;48.184;11.510;2023-04-01T04:50:47;3.03;;;0.30;;
7661;SDS011;30314;48.184;11.510;2023-04-01T04:53:17;1.63;;;0.30;;
7661;SDS011;30314;48.184;11.510;2023-04-01T04:55:45;2.77;;;0.40;;
7661;SDS011;30314;48.184;11.510;2023-04-01T04:58:25;1.53;;;0.33;;
7661;SDS011;30314;48.184;11.510;2023-04-01T05:00:52;1.40;;;0.30;;
7661;SDS011;30314;48.184;11.510;2023-04-01T05:03:25;2.77;;;0.40;;
7661;SDS011;30314;48.184;11.510;2023-04-01T05:05:52;1.00;;;0.27;;
7661;SDS011;30314;48.184;11.510;2023-04-01T05:08:20;2.63;;;0.43;;
7661;SDS011;30314;48.184;11.510;2023-04-01T05:10:47;1.10;;;0.40;;
7661;SDS011;30314;48.184;11.510;2023-04-01T05:13:14;3.27;;;0.47;;
7661;SDS011;30314;48.184;11.510;2023-04-01T05:15:44;2.10;;;0.60;;
7661;SDS011;30314;48.184;11.510;2023-04-01T05:18:10;1.53;;;0.40;;
7661;SDS011;30314;48.184;11.510;2023-04-01T05:20:37;1.20;;;0.30;;
7661;SDS011;30314;48.184;11.510;2023-04-01T05:23:04;4.60;;;0.70;;
7661;SDS011;30314;48.184;11.510;2023-04-01T05:25:30;3.93;;;0.50;;
7661;SDS011;30314;48.184;11.510;2023-04-01T05:27:57;1.00;;;0.30;;
7661;SDS011;30314;48.184;11.510;2023-04-01T05:30:24;3.03;;;0.50;;
7661;SDS011;30314;48.184;11.510;2023-04-01T05:33:00;2.80;;;0.40;;
7661;SDS011;30314;48.184;11.510;2023-04-01T05:35:27;1.07;;;0.40;;
7661;SDS011;30314;48.184;11.510;2023-04-01T05:37:54;2.50;;;0.60;;
7661;SDS011;30314;48.184;11.510;2023-04-01T05:40:20;1.23;;;0.40;;
7661;SDS011;30314;48.184;11.510;2023-04-01T05:42:47;1.37;;;0.40;;
7661;SDS011;30314;48.184;11.510;2023-04-01T05:45:14;1.23;;;0.30;;
7661;SDS011;30314;48.184;11.510;2023-04-01T05:48:01;1.10;;;0.30;;
7661;SDS011;30314;48.184;11.510;2023-04-01T05:50:35;1.73;;;0.60;;
7661;SDS011;30314;48.184;11.510;2023-04-01T05:53:02;3.03;;;0.43;;
7661;SDS011;30314;48.184;11.510;2023-04-01T05:55:29;2.00;;;0.50;;
7661;SDS011;30314;48.184;11.510;2023-04-01T05:57:56;1.23;;;0.40;;
7661;SDS011;30314;48.184;11.510;2023-04-01T06:00:23;4.80;;;1.50;;
7661;SDS011;30314;48.184;11.510;2023-04-01T06:02:50;2.80;;;1.10;;
7661;SDS011;30314;48.184;11.510;2023-04-01T06:05:19;1.60;;;0.40;;
7661;SDS011;30314;48.184;11.510;2023-04-01T06:07:48;1.33;;;0.30;;
7661;SDS011;30314;48.184;11.510;2023-04-01T06:10:21;1.77;;;0.60;;
7661;SDS011;30314;48.184;11.510;2023-04-01T06:15:44;1.00;;;0.30;;
7661;SDS011;30314;48.184;11.510;2023-04-01T06:21:03;1.57;;;0.37;;
7661;SDS011;30314;48.184;11.510;2023-04-01T06:24:23;1.87;;;0.40;;
7661;SDS011;30314;48.184;11.510;2023-04-01T06:29:47;2.07;;;0.30;;
7661;SDS011;30314;48.184;11.510;2023-04-01T06:38:02;2.30;;;0.30;;
7661;SDS011;30314;48.184;11.510;2023-04-01T06:46:20;1.30;;;0.40;;
7661;SDS011;30314;48.184;11.510;2023-04-01T06:52:55;2.53;;;0.50;;
7661;SDS011;30314;48.184;11.510;2023-04-01T06:55:46;3.40;;;0.70;;
7661;SDS011;30314;48.184;11.510;2023-04-01T06:58:27;2.10;;;0.50;;
7661;SDS011;30314;48.184;11.510;2023-04-01T07:01:01;5.53;;;0.50;;
7661;SDS011;30314;48.184;11.510;2023-04-01T07:03:32;2.10;;;0.70;;
7661;SDS011;30314;48.184;11.510;2023-04-01T07:06:05;3.00;;;0.77;;
7661;SDS011;30314;48.184;11.510;2023-04-01T07:08:46;4.30;;;0.60;;
7661;SDS011;30314;48.184;11.510;2023-04-01T07:11:22;1.80;;;0.50;;
7661;SDS011;30314;48.184;11.510;2023-04-01T07:14:14;1.67;;;0.40;;
7661;SDS011;30314;48.184;11.510;2023-04-01T07:16:46;1.30;;;0.50;;
7661;SDS011;30314;48.184;11.510;2023-04-01T07:22:21;4.03;;;0.50;;
7661;SDS011;30314;48.184;11.510;2023-04-01T07:25:33;4.63;;;0.70;;
7661;SDS011;30314;48.184;11.510;2023-04-01T07:28:21;2.77;;;0.30;;
7661;SDS011;30314;48.184;11.510;2023-04-01T07:34:05;3.73;;;0.60;;
7661;SDS011;30314;48.184;11.510;2023-04-01T07:36:45;1.47;;;0.20;;
7661;SDS011;30314;48.184;11.510;2023-04-01T07:42:09;1.83;;;0.47;;
7661;SDS011;30314;48.184;11.510;2023-04-01T07:44:59;2.27;;;0.87;;
7661;SDS011;30314;48.184;11.510;2023-04-01T07:47:40;2.27;;;0.40;;
7661;SDS011;30314;48.184;11.510;2023-04-01T07:50:26;4.07;;;0.50;;
7661;SDS011;30314;48.184;11.510;2023-04-01T07:53:02;1.77;;;0.50;;
7661;SDS011;30314;48.184;11.510;2023-04-01T07:55:42;2.03;;;0.50;;
7661;SDS011;30314;48.184;11.510;2023-04-01T07:58:23;1.63;;;0.40;;
7661;SDS011;30314;48.184;11.510;2023-04-01T08:04:15;2.10;;;0.40;;
7661;SDS011;30314;48.184;11.510;2023-04-01T08:09:28;1.10;;;0.40;;
7661;SDS011;30314;48.184;11.510;2023-04-01T08:18:46;1.10;;;0.60;;
7661;SDS011;30314;48.184;11.510;2023-04-01T08:21:38;0.70;;;0.20;;
7661;SDS011;30314;48.184;11.510;2023-04-01T08:24:44;2.47;;;0.43;;
7661;SDS011;30314;48.184;11.510;2023-04-01T08:27:26;1.53;;;0.30;;
7661;SDS011;30314;48.184;11.510;2023-04-01T08:29:57;1.20;;;0.33;;
7661;SDS011;30314;48.184;11.510;2023-04-01T08:32:34;2.20;;;0.40;;
7661;SDS011;30314;48.184;11.510;2023-04-01T08:35:26;0.97;;;0.30;;
7661;SDS011;30314;48.184;11.510;2023-04-01T08:38:05;1.10;;;0.40;;
7661;SDS011;30314;48.184;11.510;2023-04-01T08:46:28;1.77;;;0.30;;
7661;SDS011;30314;48.184;11.510;2023-04-01T08:51:53;0.70;;;0.30;;
7661;SDS011;30314;48.184;11.510;2023-04-01T09:01:35;1.90;;;0.60;;
7661;SDS011;30314;48.184;11.510;2023-04-01T09:04:14;0.80;;;0.23;;
7661;SDS011;30314;48.184;11.510;2023-04-01T09:07:09;0.80;;;0.20;;
7661;SDS011;30314;48.184;11.510;2023-04-01T09:21:11;0.83;;;0.30;;
7661;SDS011;30314;48.184;11.510;2023-04-01T09:24:32;2.50;;;0.30;;
7661;SDS011;30314;48.184;11.510;2023-04-01T09:30:07;1.10;;;0.30;;
7661;SDS011;30314;48.184;11.510;2023-04-01T09:48:17;2.80;;;0.37;;
7661;SDS011;30314;48.184;11.510;2023-04-01T09:50:57;0.70;;;0.30;;
7661;SDS011;30314;48.184;11.510;2023-04-01T09:53:36;2.40;;;0.60;;
7661;SDS011;30314;48.184;11.510;2023-04-01T10:25:34;0.70;;;0.23;;
7661;SDS011;30314;48.184;11.510;2023-04-01T10:49:05;3.00;;;0.20;;
7661;SDS011;30314;48.184;11.510;2023-04-01T10:58:32;0.90;;;0.20;;
7661;SDS011;30314;48.184;11.510;2023-04-01T11:01:45;1.00;;;0.20;;
7661;SDS011;30314;48.184;11.510;2023-04-01T11:08:38;1.40;;;0.30;;
7661;SDS011;30314;48.184;11.510;2023-04-01T11:11:39;1.53;;;0.30;;
7661;SDS011;30314;48.184;11.510;2023-04-01T11:18:02;0.77;;;0.20;;
7661;SDS011;30314;48.184;11.510;2023-04-01T11:20:51;4.70;;;0.30;;
7661;SDS011;30314;48.184;11.510;2023-04-01T11:32:42;0.90;;;0.20;;
7661;SDS011;30314;48.184;11.510;2023-04-01T11:38:06;0.70;;;0.20;;
7661;SDS011;30314;48.184;11.510;2023-04-01T11:49:40;0.70;;;0.20;;
7661;SDS011;30314;48.184;11.510;2023-04-01T11:55:35;1.00;;;0.40;;
7661;SDS011;30314;48.184;11.510;2023-04-01T11:58:18;0.87;;;0.30;;
7661;SDS011;30314;48.184;11.510;2023-04-01T12:12:32;0.80;;;0.30;;
7661;SDS011;30314;48.184;11.510;2023-04-01T12:18:21;0.70;;;0.30;;
7661;SDS011;30314;48.184;11.510;2023-04-01T12:21:14;0.80;;;0.30;;
7661;SDS011;30314;48.184;11.510;2023-04-01T12:24:06;1.17;;;0.30;;
7661;SDS011;30314;48.184;11.510;2023-04-01T12:30:04;0.70;;;0.20;;
7661;SDS011;30314;48.184;11.510;2023-04-01T12:38:38;0.90;;;0.30;;
7661;SDS011;30314;48.184;11.510;2023-04-01T12:47:29;2.23;;;0.37;;
7661;SDS011;30314;48.184;11.510;2023-04-01T12:50:19;1.20;;;0.53;;
7661;SDS011;30314;48.184;11.510;2023-04-01T12:52:58;1.00;;;0.43;;
7661;SDS011;30314;48.184;11.510;2023-04-01T12:55:40;1.10;;;0.40;;
7661;SDS011;30314;48.184;11.510;2023-04-01T13:01:03;0.90;;;0.50;;
7661;SDS011;30314;48.184;11.510;2023-04-01T13:03:53;0.90;;;0.30;;
7661;SDS011;30314;48.184;11.510;2023-04-01T13:21:03;1.07;;;0.33;;
7661;SDS011;30314;48.184;11.510;2023-04-01T13:26:35;2.10;;;0.47;;
7661;SDS011;30314;48.184;11.510;2023-04-01T13:29:21;1.33;;;0.33;;
7661;SDS011;30314;48.184;11.510;2023-04-01T13:43:37;1.30;;;0.53;;
7661;SDS011;30314;48.184;11.510;2023-04-01T13:48:53;1.23;;;0.50;;
7661;SDS011;30314;48.184;11.510;2023-04-01T13:57:36;0.97;;;0.50;;
7661;SDS011;30314;48.184;11.510;2023-04-01T14:02:49;0.70;;;0.20;;
7661;SDS011;30314;48.184;11.510;2023-04-01T14:08:13;1.63;;;0.40;;
7661;SDS011;30314;48.184;11.510;2023-04-01T14:13:52;1.40;;;0.20;;
7661;SDS011;30314;48.184;11.510;2023-04-01T14:19:34;0.80;;;0.30;;
7661;SDS011;30314;48.184;11.510;2023-04-01T14:31:08;1.27;;;0.40;;
7661;SDS011;30314;48.184;11.510;2023-04-01T14:36:59;1.23;;;0.70;;
7661;SDS011;30314;48.184;11.510;2023-04-01T14:39:29;1.17;;;0.50;;
7661;SDS011;30314;48.184;11.510;2023-04-01T14:42:55;2.30;;;0.97;;
7661;SDS011;30314;48.184;11.510;2023-04-01T14:48:00;1.00;;;0.50;;
7661;SDS011;30314;48.184;11.510;2023-04-01T14:50:46;1.03;;;0.37;;
7661;SDS011;30314;48.184;11.510;2023-04-01T14:55:51;1.67;;;0.30;;
7661;SDS011;30314;48.184;11.510;2023-04-01T14:58:20;1.13;;;0.30;;
7661;SDS011;30314;48.184;11.510;2023-04-01T15:09:32;1.30;;;0.57;;
7661;SDS011;30314;48.184;11.510;2023-04-01T15:18:09;2.53;;;0.60;;
7661;SDS011;30314;48.184;11.510;2023-04-01T15:20:57;0.90;;;0.40;;
7661;SDS011;30314;48.184;11.510;2023-04-01T15:32:02;2.17;;;0.80;;
7661;SDS011;30314;48.184;11.510;2023-04-01T15:37:37;1.10;;;0.27;;
7661;SDS011;30314;48.184;11.510;2023-04-01T15:45:54;1.83;;;1.03;;
7661;SDS011;30314;48.184;11.510;2023-04-01T15:48:40;0.80;;;0.20;;
7661;SDS011;30314;48.184;11.510;2023-04-01T15:57:18;0.97;;;0.20;;
7661;SDS011;30314;48.184;11.510;2023-04-01T16:00:02;1.73;;;0.33;;
7661;SDS011;30314;48.184;11.510;2023-04-01T16:11:09;1.10;;;0.40;;
7661;SDS011;30314;48.184;11.510;2023-04-01T16:17:17;1.17;;;0.30;;
7661;SDS011;30314;48.184;11.510;2023-04-01T16:20:14;1.13;;;0.40;;
7661;SDS011;30314;48.184;11.510;2023-04-01T16:23:02;0.90;;;0.40;;
7661;SDS011;30314;48.184;11.510;2023-04-01T16:25:39;0.70;;;0.30;;
7661;SDS011;30314;48.184;11.510;2023-04-01T16:28:13;0.90;;;0.30;;
7661;SDS011;30314;48.184;11.510;2023-04-01T16:31:04;0.80;;;0.40;;
7661;SDS011;30314;48.184;11.510;2023-04-01T16:36:29;0.70;;;0.30;;
7661;SDS011;30314;48.184;11.510;2023-04-01T16:39:11;2.60;;;0.80;;
7661;SDS011;30314;48.184;11.510;2023-04-01T16:41:52;1.17;;;0.40;;
7661;SDS011;30314;48.184;11.510;2023-04-01T16:47:23;1.00;;;0.43;;
7661;SDS011;30314;48.184;11.510;2023-04-01T16:49:59;0.87;;;0.30;;
7661;SDS011;30314;48.184;11.510;2023-04-01T16:55:35;1.20;;;0.40;;
7661;SDS011;30314;48.184;11.510;2023-04-01T16:58:14;1.27;;;0.43;;
7661;SDS011;30314;48.184;11.510;2023-04-01T17:00:50;0.90;;;0.50;;
7661;SDS011;30314;48.184;11.510;2023-04-01T17:03:44;0.90;;;0.30;;
7661;SDS011;30314;48.184;11.510;2023-04-01T17:06:19;0.80;;;0.50;;
7661;SDS011;30314;48.184;11.510;2023-04-01T17:09:20;0.80;;;0.30;;
7661;SDS011;30314;48.184;11.510;2023-04-01T17:14:52;1.00;;;0.50;;
7661;SDS011;30314;48.184;11.510;2023-04-01T17:26:37;0.90;;;0.60;;
7661;SDS011;30314;48.184;11.510;2023-04-01T17:35:01;2.70;;;0.90;;
7661;SDS011;30314;48.184;11.510;2023-04-01T17:45:57;1.03;;;0.40;;
7661;SDS011;30314;48.184;11.510;2023-04-01T17:48:41;1.00;;;0.40;;
7661;SDS011;30314;48.184;11.510;2023-04-01T17:57:10;2.30;;;1.00;;
7661;SDS011;30314;48.184;11.510;2023-04-01T18:02:42;3.87;;;2.87;;
7661;SDS011;30314;48.184;11.510;2023-04-01T18:05:33;3.10;;;1.90;;
7661;SDS011;30314;48.184;11.510;2023-04-01T18:08:25;5.43;;;2.27;;
7661;SDS011;30314;48.184;11.510;2023-04-01T18:16:53;2.73;;;1.80;;
7661;SDS011;30314;48.184;11.510;2023-04-01T18:22:41;2.97;;;1.20;;
7661;SDS011;30314;48.184;11.510;2023-04-01T18:25:21;1.43;;;1.10;;
7661;SDS011;30314;48.184;11.510;2023-04-01T18:28:11;1.53;;;0.83;;
7661;SDS011;30314;48.184;11.510;2023-04-01T18:39:19;4.33;;;3.00;;
7661;SDS011;30314;48.184;11.510;2023-04-01T18:47:48;1.40;;;0.80;;
7661;SDS011;30314;48.184;11.510;2023-04-01T18:53:13;2.83;;;2.27;;
7661;SDS011;30314;48.184;11.510;2023-04-01T18:55:52;4.53;;;1.57;;
7661;SDS011;30314;48.184;11.510;2023-04-01T18:58:34;2.90;;;1.77;;
7661;SDS011;30314;48.184;11.510;2023-04-01T19:01:12;3.03;;;1.37;;
7661;SDS011;30314;48.184;11.510;2023-04-01T19:03:44;3.17;;;2.40;;
7661;SDS011;30314;48.184;11.510;2023-04-01T19:06:23;4.83;;;1.40;;
7661;SDS011;30314;48.184;11.510;2023-04-01T19:09:00;1.53;;;0.77;;
7661;SDS011;30314;48.184;11.510;2023-04-01T19:12:06;2.77;;;1.13;;
7661;SDS011;30314;48.184;11.510;2023-04-01T19:17:08;1.00;;;0.50;;
7661;SDS011;30314;48.184;11.510;2023-04-01T19:25:49;1.40;;;0.60;;
7661;SDS011;30314;48.184;11.510;2023-04-01T19:28:31;1.60;;;0.63;;
7661;SDS011;30314;48.184;11.510;2023-04-01T19:33:45;2.43;;;0.90;;
7661;SDS011;30314;48.184;11.510;2023-04-01T19:44:18;12.83;;;6.40;;
7661;SDS011;30314;48.184;11.510;2023-04-01T19:52:47;16.70;;;7.07;;
7661;SDS011;30314;48.184;11.510;2023-04-01T19:58:13;8.67;;;4.53;;
7661;SDS011;30314;48.184;11.510;2023-04-01T20:08:38;5.00;;;2.83;;
7661;SDS011;30314;48.184;11.510;2023-04-01T20:13:49;2.50;;;1.30;;
7661;SDS011;30314;48.184;11.510;2023-04-01T20:16:17;1.67;;;0.60;;
7661;SDS011;30314;48.184;11.510;2023-04-01T20:19:03;1.17;;;0.47;;
7661;SDS011;30314;48.184;11.510;2023-04-01T20:21:40;1.30;;;0.60;;
7661;SDS011;30314;48.184;11.510;2023-04-01T20:26:44;1.83;;;0.83;;
7661;SDS011;30314;48.184;11.510;2023-04-01T20:29:23;1.73;;;0.70;;
7661;SDS011;30314;48.184;11.510;2023-04-01T20:32:04;1.50;;;0.80;;
7661;SDS011;30314;48.184;11.510;2023-04-01T20:40:57;1.43;;;0.50;;
7661;SDS011;30314;48.184;11.510;2023-04-01T21:03:23;2.33;;;0.97;;
7661;SDS011;30314;48.184;11.510;2023-04-01T21:06:13;2.07;;;1.10;;
7661;SDS011;30314;48.184;11.510;2023-04-01T21:20:18;1.30;;;0.53;;
7661;SDS011;30314;48.184;11.510;2023-04-01T21:22:59;1.00;;;0.50;;
7661;SDS011;30314;48.184;11.510;2023-04-01T21:25:38;2.57;;;1.27;;
7661;SDS011;30314;48.184;11.510;2023-04-01T21:28:22;1.30;;;0.63;;
7661;SDS011;30314;48.184;11.510;2023-04-01T21:31:12;1.40;;;0.40;;
7661;SDS011;30314;48.184;11.510;2023-04-01T21:34:25;9.73;;;3.60;;
7661;SDS011;30314;48.184;11.510;2023-04-01T21:56:37;7.50;;;1.43;;
7661;SDS011;30314;48.184;11.510;2023-04-01T22:04:59;3.03;;;0.83;;
7661;SDS011;30314;48.184;11.510;2023-04-01T22:07:45;3.23;;;0.50;;
7661;SDS011;30314;48.184;11.510;2023-04-01T22:10:27;3.90;;;1.77;;
7661;SDS011;30314;48.184;11.510;2023-04-01T22:13:00;5.43;;;0.70;;
7661;SDS011;30314;48.184;11.510;2023-04-01T22:15:45;1.60;;;0.80;;
7661;SDS011;30314;48.184;11.510;2023-04-01T22:18:34;1.20;;;0.30;;
7661;SDS011;30314;48.184;11.510;2023-04-01T22:21:08;1.63;;;0.50;;
7661;SDS011;30314;48.184;11.510;2023-04-01T22:23:42;1.53;;;0.40;;
7661;SDS011;30314;48.184;11.510;2023-04-01T22:26:23;1.07;;;0.40;;
7661;SDS011;30314;48.184;11.510;2023-04-01T22:29:10;1.03;;;0.30;;
7661;SDS011;30314;48.184;11.510;2023-04-01T22:32:00;0.90;;;0.40;;
7661;SDS011;30314;48.184;11.510;2023-04-01T22:37:23;1.93;;;0.57;;
7661;SDS011;30314;48.184;11.510;2023-04-01T22:42:43;0.70;;;0.30;;
7661;SDS011;30314;48.184;11.510;2023-04-01T22:55:49;0.87;;;0.40;;
7661;SDS011;30314;48.184;11.510;2023-04-01T22:58:41;3.27;;;0.40;;
7661;SDS011;30314;48.184;11.510;2023-04-01T23:01:15;2.00;;;0.40;;
7661;SDS011;30314;48.184;11.510;2023-04-01T23:03:47;0.77;;;0.30;;
7661;SDS011;30314;48.184;11.510;2023-04-01T23:06:19;1.40;;;0.40;;
7661;SDS011;30314;48.184;11.510;2023-04-01T23:11:53;1.13;;;0.40;;
7661;SDS011;30314;48.184;11.510;2023-04-01T23:14:37;1.80;;;0.40;;
7661;SDS011;30314;48.184;11.510;2023-04-01T23:17:17;0.90;;;0.40;;
7661;SDS011;30314;48.184;11.510;2023-04-01T23:19:49;0.93;;;0.30;;
7661;SDS011;30314;48.184;11.510;2023-04-01T23:25:35;2.33;;;0.50;;
7661;SDS011;30314;48.184;11.510;2023-04-01T23:27:50;1.23;;;0.40;;
7661;SDS011;30314;48.184;11.510;2023-04-01T23:36:32;1.20;;;0.40;;
7661;SDS011;30314;48.184;11.510;2023-04-01T23:38:41;1.37;;;0.57;;
7661;SDS011;30314;48.184;11.510;2023-04-01T23:41:20;0.90;;;0.40;;
7661;SDS011;30314;48.184;11.510;2023-04-01T23:43:56;0.90;;;0.40;;
7661;SDS011;30314;48.184;11.510;2023-04-01T23:46:23;1.40;;;0.50;;
7661;SDS011;30314;48.184;11.510;2023-04-01T23:48:51;2.50;;;0.30;;
7661;SDS011;30314;48.184;11.510;2023-04-01T23:51:21;1.00;;;0.30;;
7661;SDS011;30314;48.184;11.510;2023-04-01T23:54:11;1.20;;;0.40;;
7661;SDS011;30314;48.184;11.510;2023-04-01T23:56:46;1.93;;;0.40;;
7661;SDS011;30314;48.184;11.510;2023-04-01T23:59:39;2.03;;;0.30;;
